Time;durP1;ratioP1;P1;durP2;ratioP2;P2;SDS_P1;SDS_P2;PMS_P1;PMS_P2;Temp;Humidity;BMP_temperature;BMP_pressure;BME280_temperature;BME280_humidity;BME280_pressure;Samples;Min_cycle;Max_cycle;Signal;HPM_P1;HPM_P2
2021/04/11 00:00:43;;;;;;;6.20;4.10;;;8.10;99.90;;;;;;4997022;28;20187;-76
2021/04/11 00:03:14;;;;;;;5.97;3.63;;;8.10;99.90;;;;;;4996965;28;20644;-76
2021/04/11 00:05:41;;;;;;;4.97;3.83;;;8.10;99.90;;;;;;4995482;28;20181;-76
2021/04/11 00:08:08;;;;;;;6.57;3.97;;;8.20;99.90;;;;;;4995278;28;20193;-75
2021/04/11 00:10:37;;;;;;;4.77;3.93;;;8.10;99.90;;;;;;4996580;28;20191;-76
2021/04/11 00:13:06;;;;;;;4.30;3.67;;;8.20;99.90;;;;;;4996547;28;20210;-75
2021/04/11 00:15:32;;;;;;;4.00;3.20;;;8.20;99.90;;;;;;4996443;28;20174;-75
2021/04/11 00:17:57;;;;;;;6.53;3.77;;;8.20;99.90;;;;;;4996423;28;20193;-76
2021/04/11 00:20:23;;;;;;;4.03;3.20;;;8.20;99.90;;;;;;4996722;28;20526;-76
2021/04/11 00:22:51;;;;;;;5.40;3.60;;;8.20;99.90;;;;;;4996327;28;20539;-75
2021/04/11 00:25:22;;;;;;;6.57;3.87;;;8.30;99.90;;;;;;4996110;28;20275;-76
2021/04/11 00:27:48;;;;;;;4.70;3.50;;;8.30;99.90;;;;;;4996436;28;20195;-76
2021/04/11 00:30:15;;;;;;;7.13;3.60;;;8.30;99.90;;;;;;4994971;28;20666;-76
2021/04/11 00:32:41;;;;;;;5.30;3.40;;;8.30;99.90;;;;;;4996202;28;20174;-75
2021/04/11 00:35:08;;;;;;;10.37;6.00;;;8.30;99.90;;;;;;4994803;28;20184;-76
2021/04/11 00:37:33;;;;;;;5.30;3.50;;;8.30;99.90;;;;;;4996021;28;20193;-76
2021/04/11 00:40:00;;;;;;;4.63;3.50;;;8.30;99.90;;;;;;4996300;28;20179;-76
2021/04/11 00:42:38;;;;;;;6.37;3.90;;;8.30;99.90;;;;;;4996066;28;20182;-76
2021/04/11 00:45:46;;;;;;;5.37;3.80;;;8.30;99.90;;;;;;4996233;28;20297;-76
2021/04/11 00:48:13;;;;;;;9.27;4.50;;;8.20;99.90;;;;;;4995693;28;20292;-75
2021/04/11 00:50:39;;;;;;;5.07;4.10;;;8.20;99.90;;;;;;4995927;28;20170;-75
2021/04/11 00:53:07;;;;;;;15.03;7.87;;;8.20;99.90;;;;;;4995812;28;20178;-75
2021/04/11 00:55:33;;;;;;;18.70;9.87;;;8.20;99.90;;;;;;4995659;28;20176;-76
2021/04/11 00:57:59;;;;;;;32.30;15.80;;;8.10;99.90;;;;;;4995535;28;20550;-76
2021/04/11 01:00:30;;;;;;;19.10;11.40;;;8.10;99.90;;;;;;5010631;28;20227;-76
2021/04/11 01:02:56;;;;;;;31.40;16.07;;;8.00;99.90;;;;;;4995343;28;20207;-76
2021/04/11 01:05:28;;;;;;;30.10;16.10;;;8.00;99.90;;;;;;4995407;28;20562;-76
2021/04/11 01:07:55;;;;;;;20.70;10.80;;;8.00;99.90;;;;;;5010697;28;20562;-76
2021/04/11 01:10:27;;;;;;;13.70;7.30;;;8.00;99.90;;;;;;4995526;28;20174;-76
2021/04/11 01:12:54;;;;;;;10.87;6.33;;;8.00;99.90;;;;;;4995597;28;20177;-76
2021/04/11 01:15:32;;;;;;;6.80;5.47;;;8.00;99.90;;;;;;4995319;28;20175;-76
2021/04/11 01:17:58;;;;;;;20.43;11.27;;;8.00;99.90;;;;;;4995360;28;20230;-76
2021/04/11 01:20:26;;;;;;;12.77;7.80;;;8.10;99.90;;;;;;4995308;28;20185;-76
2021/04/11 01:23:10;;;;;;;25.63;15.03;;;8.10;99.90;;;;;;4993951;28;20183;-76
2021/04/11 01:25:38;;;;;;;21.37;15.00;;;8.00;99.90;;;;;;4993967;28;20178;-76
2021/04/11 01:28:17;;;;;;;14.80;11.43;;;8.00;99.90;;;;;;5010212;28;20197;-76
2021/04/11 01:30:44;;;;;;;14.70;10.97;;;8.00;99.90;;;;;;4995193;28;20170;-76
2021/04/11 01:33:17;;;;;;;9.97;7.53;;;8.00;99.90;;;;;;4993860;28;20264;-76
2021/04/11 01:35:44;;;;;;;12.57;9.30;;;8.00;99.90;;;;;;4995007;28;20221;-76
2021/04/11 01:38:11;;;;;;;13.23;9.57;;;7.90;99.90;;;;;;4993682;28;20296;-76
2021/04/11 01:40:50;;;;;;;8.70;7.60;;;7.90;99.90;;;;;;4994952;28;20672;-76
2021/04/11 01:43:16;;;;;;;7.97;6.77;;;7.90;99.90;;;;;;4995125;28;20185;-76
2021/04/11 01:45:43;;;;;;;13.07;4.60;;;7.90;99.90;;;;;;4994817;28;20263;-76
2021/04/11 01:48:10;;;;;;;8.27;5.63;;;7.90;99.90;;;;;;4994809;28;20675;-76
2021/04/11 01:50:37;;;;;;;6.50;4.60;;;7.90;99.90;;;;;;4993507;28;20260;-76
2021/04/11 01:53:04;;;;;;;6.37;5.30;;;7.90;99.90;;;;;;5026235;28;20548;-76
2021/04/11 01:55:31;;;;;;;7.40;4.70;;;7.90;99.90;;;;;;4994622;28;20173;-76
2021/04/11 01:57:57;;;;;;;6.87;4.07;;;7.90;99.90;;;;;;4994545;28;20212;-76
2021/04/11 02:00:23;;;;;;;6.77;4.90;;;7.80;99.90;;;;;;4994698;28;20169;-76
2021/04/11 02:02:56;;;;;;;5.13;4.30;;;7.80;99.90;;;;;;4994554;28;20175;-76
2021/04/11 02:05:22;;;;;;;7.73;4.53;;;7.80;99.90;;;;;;4993056;28;20217;-76
2021/04/11 02:07:52;;;;;;;5.67;4.80;;;7.80;99.90;;;;;;4994525;28;20195;-76
2021/04/11 02:10:20;;;;;;;8.50;4.57;;;7.70;99.90;;;;;;4994488;28;20267;-76
2021/04/11 02:12:46;;;;;;;9.43;4.23;;;7.70;99.90;;;;;;4993109;28;20220;-76
2021/04/11 02:15:16;;;;;;;7.27;4.47;;;7.70;99.90;;;;;;4993556;28;20218;-76
2021/04/11 02:17:42;;;;;;;5.50;4.50;;;7.70;99.90;;;;;;4994680;28;20251;-76
2021/04/11 02:20:11;;;;;;;6.40;4.10;;;7.70;99.90;;;;;;4994268;28;20550;-76
2021/04/11 02:22:39;;;;;;;8.37;4.80;;;7.60;99.90;;;;;;4994326;28;20183;-76
2021/04/11 02:25:07;;;;;;;5.43;4.40;;;7.50;99.90;;;;;;4994024;28;20269;-75
2021/04/11 02:27:34;;;;;;;8.00;4.30;;;7.40;99.90;;;;;;4992970;28;20200;-76
2021/04/11 02:30:08;;;;;;;5.83;4.50;;;7.40;99.90;;;;;;5025774;28;20185;-75
2021/04/11 02:32:34;;;;;;;5.07;4.57;;;7.50;99.90;;;;;;4994816;28;20172;-76
2021/04/11 02:35:04;;;;;;;8.80;4.10;;;7.40;99.90;;;;;;4994205;28;20186;-76
2021/04/11 02:37:33;;;;;;;4.97;3.87;;;7.40;99.90;;;;;;4992916;28;20689;-76
2021/04/11 02:40:00;;;;;;;7.27;4.10;;;7.40;99.90;;;;;;4994422;28;20620;-76
2021/04/11 02:42:30;;;;;;;10.10;3.87;;;7.40;99.90;;;;;;5010633;28;20181;-76
2021/04/11 02:45:03;;;;;;;6.10;3.67;;;7.40;99.90;;;;;;5030213;28;20243;-75
2021/04/11 02:47:29;;;;;;;5.63;3.77;;;7.40;99.90;;;;;;4996198;28;20205;-75
2021/04/11 02:49:54;;;;;;;4.80;3.77;;;7.40;99.90;;;;;;4995488;28;20177;-75
2021/04/11 02:52:28;;;;;;;5.50;4.60;;;7.50;99.90;;;;;;4995983;28;20232;-76
2021/04/11 02:54:56;;;;;;;5.57;3.57;;;7.50;99.90;;;;;;4996180;28;20174;-76
2021/04/11 02:57:23;;;;;;;5.80;3.90;;;7.50;99.90;;;;;;4994181;28;20250;-76
2021/04/11 02:59:53;;;;;;;5.20;3.77;;;7.50;99.90;;;;;;4994300;28;20271;-75
2021/04/11 03:02:20;;;;;;;5.67;4.07;;;7.40;99.90;;;;;;4994186;28;20528;-76
2021/04/11 03:04:46;;;;;;;6.50;4.17;;;7.40;99.90;;;;;;4994052;28;20205;-76
2021/04/11 03:07:22;;;;;;;7.30;4.13;;;7.40;99.90;;;;;;4994132;28;20660;-76
2021/04/11 03:09:58;;;;;;;4.40;3.77;;;7.30;99.90;;;;;;4994441;28;20630;-76
2021/04/11 03:12:24;;;;;;;8.97;5.67;;;7.30;99.90;;;;;;4994967;28;20199;-75
2021/04/11 03:14:51;;;;;;;7.03;3.97;;;7.30;99.90;;;;;;4993953;28;20169;-75
2021/04/11 03:17:20;;;;;;;4.63;4.23;;;7.30;99.90;;;;;;4993796;28;20198;-75
2021/04/11 03:19:53;;;;;;;7.40;3.80;;;7.30;99.90;;;;;;4992670;28;20330;-75
2021/04/11 03:22:20;;;;;;;4.23;3.67;;;7.30;99.90;;;;;;4994117;28;20649;-75
2021/04/11 03:24:51;;;;;;;7.23;3.90;;;7.30;99.90;;;;;;4993680;28;20202;-75
2021/04/11 03:27:24;;;;;;;3.97;3.40;;;7.30;99.90;;;;;;4994750;28;20209;-75
2021/04/11 03:30:25;;;;;;;5.57;3.90;;;7.30;99.90;;;;;;4997530;28;20688;-75
2021/04/11 03:32:57;;;;;;;4.67;3.80;;;7.30;99.90;;;;;;4995813;28;20566;-76
2021/04/11 03:35:26;;;;;;;4.17;3.00;;;7.30;99.90;;;;;;4997300;28;20238;-75
2021/04/11 03:37:54;;;;;;;4.53;4.00;;;7.30;99.90;;;;;;4997242;28;20259;-75
2021/04/11 03:40:28;;;;;;;6.30;3.93;;;7.30;99.90;;;;;;4997350;28;20172;-76
2021/04/11 03:43:02;;;;;;;3.77;3.43;;;7.30;99.90;;;;;;4996019;28;20185;-76
2021/04/11 03:45:32;;;;;;;4.87;3.23;;;7.30;99.90;;;;;;4996934;28;20202;-76
2021/04/11 03:48:05;;;;;;;6.07;3.60;;;7.30;99.90;;;;;;4997187;28;20207;-75
2021/04/11 03:50:38;;;;;;;4.20;3.80;;;7.30;99.90;;;;;;4995869;28;20172;-76
2021/04/11 03:53:39;;;;;;;6.23;3.40;;;7.30;99.90;;;;;;4995687;28;20181;-76
2021/04/11 03:56:09;;;;;;;4.50;3.30;;;7.30;99.90;;;;;;4996480;28;20694;-76
2021/04/11 03:58:42;;;;;;;3.87;3.30;;;7.30;99.90;;;;;;4995610;28;20676;-76
2021/04/11 04:01:22;;;;;;;3.53;2.90;;;7.30;99.90;;;;;;4995547;28;20177;-76
2021/04/11 04:03:50;;;;;;;3.77;3.10;;;7.30;99.90;;;;;;4995396;28;20207;-76
2021/04/11 04:06:27;;;;;;;3.33;2.97;;;7.20;99.90;;;;;;4996492;28;20178;-75
2021/04/11 04:08:53;;;;;;;4.47;3.50;;;7.30;99.90;;;;;;4996889;28;20213;-76
2021/04/11 04:11:42;;;;;;;4.77;3.60;;;7.10;99.90;;;;;;4995243;28;20209;-75
2021/04/11 04:14:34;;;;;;;5.43;3.33;;;7.10;99.90;;;;;;4996430;28;20201;-75
2021/04/11 04:17:18;;;;;;;8.67;3.33;;;7.10;99.90;;;;;;4980201;28;20678;-76
2021/04/11 04:19:47;;;;;;;6.07;3.20;;;7.10;99.90;;;;;;4995113;28;20644;-75
2021/04/11 04:22:33;;;;;;;3.90;3.43;;;7.10;99.90;;;;;;4996618;28;20243;-76
2021/04/11 04:25:22;;;;;;;4.40;3.07;;;7.10;99.90;;;;;;4996230;28;20288;-76
2021/04/11 04:28:26;;;;;;;4.90;4.10;;;7.10;99.90;;;;;;4996464;28;20201;-75
2021/04/11 04:31:02;;;;;;;3.67;2.90;;;7.10;99.90;;;;;;4996308;28;20203;-76
2021/04/11 04:34:07;;;;;;;4.07;3.53;;;7.10;99.90;;;;;;4994929;28;20176;-75
2021/04/11 04:36:46;;;;;;;4.07;3.37;;;7.10;99.90;;;;;;4996119;28;20168;-75
2021/04/11 04:39:37;;;;;;;6.07;3.73;;;7.20;99.90;;;;;;4995518;28;20356;-75
2021/04/11 04:42:20;;;;;;;4.53;3.33;;;7.10;99.90;;;;;;4996238;28;20200;-75
2021/04/11 04:45:12;;;;;;;3.73;3.33;;;7.10;99.90;;;;;;4994399;28;20234;-75
2021/04/11 04:48:01;;;;;;;8.00;3.70;;;7.10;99.90;;;;;;4996135;28;20196;-76
2021/04/11 04:50:33;;;;;;;3.97;3.53;;;7.00;99.90;;;;;;4996067;28;20248;-76
2021/04/11 04:53:20;;;;;;;3.83;3.40;;;7.10;99.90;;;;;;4995990;28;20235;-75
2021/04/11 04:55:49;;;;;;;4.87;3.60;;;6.80;99.90;;;;;;4995834;28;20502;-76
2021/04/11 04:58:49;;;;;;;4.10;3.30;;;6.80;99.90;;;;;;4995612;28;20304;-76
2021/04/11 05:01:22;;;;;;;4.40;3.40;;;6.80;99.90;;;;;;4983849;28;20193;-76
2021/04/11 05:03:51;;;;;;;5.37;3.20;;;6.80;99.90;;;;;;4996051;28;20284;-76
2021/04/11 05:06:49;;;;;;;3.90;3.50;;;6.90;99.90;;;;;;4994214;28;20182;-75
2021/04/11 05:09:23;;;;;;;4.10;3.10;;;6.90;99.90;;;;;;4983832;28;20297;-76
2021/04/11 05:12:11;;;;;;;4.60;3.27;;;6.90;99.90;;;;;;4995545;28;20167;-76
2021/04/11 05:14:53;;;;;;;4.50;3.50;;;7.00;99.90;;;;;;4995528;28;20255;-76
2021/04/11 05:17:35;;;;;;;5.43;3.57;;;7.00;99.90;;;;;;4994219;28;20212;-76
2021/04/11 05:20:10;;;;;;;4.50;3.00;;;7.10;99.90;;;;;;4995367;28;20179;-75
2021/04/11 05:22:39;;;;;;;4.93;3.53;;;7.10;99.90;;;;;;4995266;28;20539;-76
2021/04/11 05:25:09;;;;;;;5.27;2.93;;;7.10;99.90;;;;;;4993659;28;20264;-75
2021/04/11 05:27:42;;;;;;;4.23;3.20;;;7.10;99.90;;;;;;4993789;28;20197;-76
2021/04/11 05:30:16;;;;;;;4.87;3.27;;;7.10;99.90;;;;;;4995407;28;20246;-76
2021/04/11 05:32:43;;;;;;;3.77;3.20;;;7.10;99.90;;;;;;5026864;28;20186;-77
2021/04/11 05:35:10;;;;;;;3.40;2.80;;;7.20;99.90;;;;;;4993690;28;20194;-76
2021/04/11 05:37:57;;;;;;;3.23;2.80;;;7.20;99.90;;;;;;4994932;28;20267;-76
2021/04/11 05:40:29;;;;;;;6.63;2.93;;;7.30;99.90;;;;;;4994963;28;20175;-76
2021/04/11 05:43:08;;;;;;;3.13;2.63;;;7.30;99.90;;;;;;4994998;28;20636;-76
2021/04/11 05:45:48;;;;;;;3.53;2.80;;;7.30;99.90;;;;;;4993521;28;20189;-76
2021/04/11 05:48:20;;;;;;;3.67;3.10;;;7.40;99.90;;;;;;4993618;28;20330;-76
2021/04/11 05:51:12;;;;;;;5.83;3.20;;;7.40;99.90;;;;;;4993929;28;20179;-76
2021/04/11 05:53:59;;;;;;;4.43;3.20;;;7.40;99.90;;;;;;4993578;28;20275;-76
2021/04/11 05:56:29;;;;;;;7.07;3.30;;;7.50;99.90;;;;;;4994824;28;20527;-77
2021/04/11 05:59:01;;;;;;;5.27;3.10;;;7.50;99.90;;;;;;4995446;28;20174;-76
2021/04/11 06:01:35;;;;;;;5.00;3.20;;;7.60;99.90;;;;;;4995119;28;20162;-76
2021/04/11 06:04:20;;;;;;;5.00;2.90;;;7.60;99.90;;;;;;4995176;28;20244;-77
2021/04/11 06:07:13;;;;;;;3.30;2.90;;;7.60;99.90;;;;;;4994591;28;20589;-77
2021/04/11 06:09:54;;;;;;;3.70;3.03;;;7.70;99.90;;;;;;4993420;28;20172;-76
2021/04/11 06:12:49;;;;;;;3.17;2.70;;;7.80;99.90;;;;;;4994844;28;20162;-76
2021/04/11 06:15:18;;;;;;;6.13;3.60;;;7.80;99.90;;;;;;4994376;28;20177;-76
2021/04/11 06:17:46;;;;;;;3.80;3.20;;;7.90;99.90;;;;;;5026018;28;20231;-76
2021/04/11 06:20:13;;;;;;;3.53;3.07;;;7.90;99.90;;;;;;4994642;28;20181;-77
2021/04/11 06:23:01;;;;;;;2.67;2.47;;;8.00;99.90;;;;;;4993163;28;20610;-77
2021/04/11 06:25:38;;;;;;;3.27;2.87;;;8.10;99.90;;;;;;4994201;28;20230;-77
2021/04/11 06:28:24;;;;;;;4.03;3.07;;;8.20;99.90;;;;;;4994384;28;20204;-77
2021/04/11 06:30:52;;;;;;;5.80;2.83;;;8.20;99.90;;;;;;4994841;28;20165;-76
2021/04/11 06:33:22;;;;;;;4.73;2.77;;;8.30;99.90;;;;;;4994278;28;20165;-76
2021/04/11 06:35:53;;;;;;;2.90;2.70;;;8.30;99.90;;;;;;4994220;28;20180;-76
2021/04/11 06:38:24;;;;;;;5.20;2.90;;;8.40;99.90;;;;;;4994222;28;20233;-76
2021/04/11 06:40:55;;;;;;;5.17;3.23;;;8.50;99.90;;;;;;4994227;28;20158;-76
2021/04/11 06:43:39;;;;;;;4.40;3.03;;;8.60;99.90;;;;;;4993039;28;20707;-76
2021/04/11 06:46:52;;;;;;;4.97;3.47;;;8.70;99.90;;;;;;4993915;28;20181;-77
2021/04/11 06:49:18;;;;;;;4.87;3.17;;;8.80;99.90;;;;;;4956461;28;20213;-76
2021/04/11 06:52:23;;;;;;;3.20;2.90;;;8.90;99.90;;;;;;4972809;28;20175;-76
2021/04/11 06:55:14;;;;;;;3.13;2.53;;;9.00;99.90;;;;;;4988383;28;20350;-76
2021/04/11 06:58:00;;;;;;;5.77;4.30;;;9.10;99.90;;;;;;4992617;28;20349;-76
2021/04/11 07:00:42;;;;;;;4.40;2.87;;;9.20;99.90;;;;;;4992814;28;20219;-76
2021/04/11 07:03:30;;;;;;;5.60;3.03;;;9.30;99.90;;;;;;4998026;28;20162;-77
2021/04/11 07:06:14;;;;;;;3.87;3.17;;;9.30;99.90;;;;;;4996531;28;20181;-76
2021/04/11 07:08:48;;;;;;;3.57;3.17;;;9.40;99.90;;;;;;4996514;28;20205;-76
2021/04/11 07:11:35;;;;;;;5.33;2.83;;;9.30;99.90;;;;;;4996543;28;20175;-76
2021/04/11 07:14:19;;;;;;;4.43;3.03;;;9.20;99.90;;;;;;4996432;28;20563;-76
2021/04/11 07:17:02;;;;;;;4.60;2.93;;;9.30;99.90;;;;;;4996313;28;20199;-76
2021/04/11 07:19:57;;;;;;;3.83;2.37;;;9.40;99.90;;;;;;4997939;28;20208;-76
2021/04/11 07:22:49;;;;;;;3.17;2.63;;;9.60;99.90;;;;;;4997878;28;20166;-76
2021/04/11 07:25:53;;;;;;;3.43;2.30;;;9.80;99.90;;;;;;4996035;28;20197;-76
2021/04/11 07:28:34;;;;;;;2.80;2.20;;;10.10;99.90;;;;;;4996206;28;20559;-76
2021/04/11 07:31:16;;;;;;;5.57;2.20;;;10.50;99.90;;;;;;4997625;28;20179;-77
2021/04/11 07:33:58;;;;;;;3.60;2.20;;;10.80;99.90;;;;;;4997458;28;20163;-77
2021/04/11 07:36:38;;;;;;;4.47;2.00;;;11.30;99.90;;;;;;4997117;28;20166;-77
2021/04/11 07:39:32;;;;;;;3.77;2.60;;;11.80;99.90;;;;;;4997272;28;20170;-77
2021/04/11 07:42:39;;;;;;;4.50;2.27;;;12.20;99.90;;;;;;5028721;28;20234;-77
2021/04/11 07:45:29;;;;;;;2.97;2.17;;;12.80;99.90;;;;;;4979638;28;20608;-77
2021/04/11 07:48:27;;;;;;;3.73;2.20;;;13.70;99.90;;;;;;4995766;28;20207;-77
2021/04/11 07:51:20;;;;;;;3.73;2.33;;;14.70;99.40;;;;;;4992140;28;20195;-76
2021/04/11 07:54:04;;;;;;;2.90;2.20;;;15.90;93.90;;;;;;4997013;28;20172;-77
2021/04/11 07:57:01;;;;;;;2.30;2.10;;;16.90;89.60;;;;;;4996673;28;20184;-77
2021/04/11 07:59:45;;;;;;;3.93;1.90;;;17.90;84.10;;;;;;4996984;28;20183;-78
2021/04/11 08:02:30;;;;;;;2.73;1.80;;;18.30;77.50;;;;;;4997125;28;20183;-76
2021/04/11 08:05:29;;;;;;;2.30;2.10;;;18.80;74.90;;;;;;4995276;28;20211;-76
2021/04/11 08:08:13;;;;;;;3.30;1.90;;;19.30;68.70;;;;;;4997252;28;20342;-76
2021/04/11 08:11:11;;;;;;;4.20;2.20;;;19.80;70.50;;;;;;4995436;28;20206;-76
2021/04/11 08:14:01;;;;;;;2.50;2.00;;;20.20;64.00;;;;;;4994554;28;20581;-76
2021/04/11 08:16:40;;;;;;;2.43;1.80;;;20.40;64.10;;;;;;4995273;28;20176;-76
2021/04/11 08:19:12;;;;;;;4.20;1.90;;;20.40;65.50;;;;;;4996789;28;20175;-76
2021/04/11 08:21:37;;;;;;;3.40;2.40;;;21.00;59.90;;;;;;4996740;28;20184;-76
2021/04/11 08:24:09;;;;;;;5.10;2.20;;;20.90;57.70;;;;;;4996702;28;20218;-77
2021/04/11 08:27:19;;;;;;;6.17;2.40;;;21.10;58.90;;;;;;4996405;28;20197;-76
2021/04/11 08:30:10;;;;;;;2.93;2.17;;;20.80;60.30;;;;;;4996892;28;20167;-76
2021/04/11 08:32:56;;;;;;;3.53;2.13;;;20.60;61.90;;;;;;4996240;28;20171;-76
2021/04/11 08:35:43;;;;;;;3.37;2.10;;;20.40;59.50;;;;;;4996404;28;20176;-76
2021/04/11 08:38:43;;;;;;;3.83;2.10;;;20.10;57.50;;;;;;4996092;28;20206;-76
2021/04/11 08:41:17;;;;;;;2.90;2.23;;;19.30;59.00;;;;;;4994798;28;20180;-76
2021/04/11 08:44:04;;;;;;;4.70;2.27;;;19.50;56.20;;;;;;4995993;28;20207;-76
2021/04/11 08:47:07;;;;;;;3.20;2.00;;;19.70;57.10;;;;;;4996528;28;20168;-76
2021/04/11 08:49:33;;;;;;;3.23;1.90;;;19.70;57.30;;;;;;4996267;28;20160;-76
2021/04/11 08:52:07;;;;;;;3.27;2.07;;;20.20;56.30;;;;;;4995888;28;20222;-76
2021/04/11 08:54:48;;;;;;;3.90;1.80;;;20.80;56.30;;;;;;4994479;28;20238;-76
2021/04/11 08:58:11;;;;;;;2.50;1.93;;;20.80;53.00;;;;;;4995898;28;20620;-77
2021/04/11 09:00:42;;;;;;;2.17;1.40;;;20.40;56.20;;;;;;4979379;28;20188;-78
2021/04/11 09:03:21;;;;;;;9.27;7.30;;;20.30;55.40;;;;;;4960900;28;20220;-78
2021/04/11 09:06:05;;;;;;;3.63;2.87;;;19.80;54.40;;;;;;4991651;28;20223;-78
2021/04/11 09:08:49;;;;;;;20.97;18.90;;;19.50;57.70;;;;;;4999882;28;20707;-78
2021/04/11 09:12:09;;;;;;;6.10;5.50;;;18.90;57.90;;;;;;5000793;28;20178;-78
2021/04/11 09:14:51;;;;;;;2.53;2.10;;;18.70;58.80;;;;;;4977597;28;20188;-78
2021/04/11 09:18:00;;;;;;;5.23;4.73;;;18.40;58.00;;;;;;4996773;28;20215;-78
2021/04/11 09:21:00;;;;;;;1.40;1.30;;;18.20;59.40;;;;;;4987767;28;20203;-78
2021/04/11 09:24:02;;;;;;;1.90;1.60;;;17.90;60.00;;;;;;4980120;28;20189;-78
2021/04/11 09:26:40;;;;;;;3.40;1.63;;;17.90;61.10;;;;;;4988728;28;20176;-78
2021/04/11 09:29:26;;;;;;;2.23;1.70;;;17.90;59.30;;;;;;4982293;28;20626;-78
2021/04/11 09:32:19;;;;;;;2.13;1.60;;;17.90;57.60;;;;;;4999767;28;20164;-78
2021/04/11 09:35:22;;;;;;;2.83;1.37;;;17.80;59.20;;;;;;4993053;28;20541;-77
2021/04/11 09:38:12;;;;;;;4.07;1.77;;;17.70;60.30;;;;;;5006339;28;20219;-78
2021/04/11 09:40:45;;;;;;;1.93;1.60;;;17.60;59.00;;;;;;4998873;28;20172;-78
2021/04/11 09:43:48;;;;;;;3.93;1.50;;;17.50;59.40;;;;;;4998712;28;20189;-78
2021/04/11 09:46:16;;;;;;;2.27;2.03;;;17.60;59.00;;;;;;4999097;28;20183;-78
2021/04/11 09:48:45;;;;;;;2.00;1.53;;;18.00;60.90;;;;;;5000209;28;20203;-78
2021/04/11 09:51:29;;;;;;;3.40;2.00;;;18.30;58.60;;;;;;5000480;28;20541;-78
2021/04/11 09:54:33;;;;;;;2.77;1.80;;;18.50;57.70;;;;;;5003302;28;20163;-78
2021/04/11 09:57:32;;;;;;;3.97;1.70;;;18.90;58.90;;;;;;5004275;28;20278;-78
2021/04/11 10:00:07;;;;;;;2.20;1.80;;;19.20;57.40;;;;;;4998937;28;20170;-78
2021/04/11 10:02:51;;;;;;;2.30;1.40;;;19.50;57.60;;;;;;4998146;28;20171;-78
2021/04/11 10:05:24;;;;;;;2.37;1.80;;;19.60;56.80;;;;;;4998545;28;20209;-78
2021/04/11 10:08:00;;;;;;;1.90;1.37;;;19.90;54.60;;;;;;4997973;28;20188;-76
2021/04/11 10:10:47;;;;;;;2.10;1.40;;;20.40;56.50;;;;;;4994629;28;20164;-76
2021/04/11 10:13:34;;;;;;;2.33;1.57;;;20.60;55.00;;;;;;4994653;28;20190;-77
2021/04/11 10:16:06;;;;;;;2.30;1.50;;;20.40;53.40;;;;;;4993151;28;20573;-77
2021/04/11 10:19:13;;;;;;;1.90;1.37;;;19.60;52.60;;;;;;4994604;28;20213;-77
2021/04/11 10:22:16;;;;;;;3.07;1.80;;;19.30;54.20;;;;;;4994655;28;20518;-76
2021/04/11 10:25:02;;;;;;;2.40;1.33;;;19.10;57.10;;;;;;4994027;28;20201;-76
2021/04/11 10:27:45;;;;;;;3.90;1.70;;;19.20;55.90;;;;;;4994309;28;20274;-76
2021/04/11 10:30:15;;;;;;;1.70;1.60;;;19.30;56.30;;;;;;4994611;28;20175;-76
2021/04/11 10:32:48;;;;;;;6.10;1.60;;;19.50;57.50;;;;;;4994360;28;20326;-76
2021/04/11 10:35:26;;;;;;;1.70;1.27;;;19.80;57.60;;;;;;4994068;28;20157;-76
2021/04/11 10:38:01;;;;;;;1.67;1.13;;;20.20;55.40;;;;;;4992717;28;20205;-77
2021/04/11 10:40:29;;;;;;;3.87;1.33;;;20.40;54.40;;;;;;4994374;28;20154;-77
2021/04/11 10:43:06;;;;;;;3.20;1.50;;;20.30;55.60;;;;;;4994298;28;20181;-77
2021/04/11 10:45:41;;;;;;;1.83;1.40;;;20.30;52.90;;;;;;4992931;28;20212;-78
2021/04/11 10:48:19;;;;;;;2.53;1.73;;;20.30;55.80;;;;;;4994232;28;20207;-77
2021/04/11 10:51:08;;;;;;;2.90;1.30;;;20.20;55.60;;;;;;4994123;28;20186;-77
2021/04/11 10:54:11;;;;;;;2.30;1.30;;;20.50;55.00;;;;;;4984638;28;20681;-80
2021/04/11 10:56:54;;;;;;;2.23;1.40;;;21.00;54.20;;;;;;4992701;28;20650;-77
2021/04/11 10:59:34;;;;;;;1.50;1.40;;;21.40;56.30;;;;;;4993030;28;20548;-77
2021/04/11 11:02:17;;;;;;;2.40;1.13;;;21.60;53.90;;;;;;4994711;28;20635;-77
2021/04/11 11:05:41;;;;;;;2.67;1.30;;;21.20;52.20;;;;;;4994202;28;20238;-77
2021/04/11 11:08:26;;;;;;;3.97;1.40;;;21.40;52.40;;;;;;4924804;28;20563;-77
2021/04/11 11:11:12;;;;;;;1.77;1.33;;;21.70;54.30;;;;;;4992750;28;20180;-77
2021/04/11 11:14:23;;;;;;;4.60;1.57;;;22.20;53.70;;;;;;4994570;28;20242;-77
2021/04/11 11:17:02;;;;;;;1.43;1.20;;;21.80;50.50;;;;;;4984087;28;20213;-77
2021/04/11 11:19:36;;;;;;;2.57;1.00;;;21.10;49.70;;;;;;4994274;28;20164;-77
2021/04/11 11:22:17;;;;;;;3.77;1.23;;;20.40;53.00;;;;;;4993250;28;20207;-77
2021/04/11 11:25:13;;;;;;;3.73;1.30;;;20.60;54.30;;;;;;4994682;28;20209;-77
2021/04/11 11:27:58;;;;;;;1.27;1.07;;;20.80;50.60;;;;;;4994463;28;20200;-77
2021/04/11 11:30:38;;;;;;;3.37;1.40;;;20.20;51.40;;;;;;4996692;28;20271;-78
2021/04/11 11:33:17;;;;;;;1.70;1.20;;;20.20;51.40;;;;;;4996177;28;20181;-78
2021/04/11 11:36:22;;;;;;;1.83;1.10;;;20.70;51.80;;;;;;4995109;28;20185;-77
2021/04/11 11:39:05;;;;;;;1.20;1.07;;;21.60;53.50;;;;;;4990891;28;20646;-77
2021/04/11 11:41:51;;;;;;;3.33;1.40;;;22.20;50.50;;;;;;4999060;28;20180;-77
2021/04/11 11:44:59;;;;;;;1.73;1.40;;;21.90;50.30;;;;;;5029848;28;20196;-78
2021/04/11 11:47:50;;;;;;;4.03;1.30;;;20.80;52.90;;;;;;4994073;28;20252;-78
2021/04/11 11:50:56;;;;;;;2.87;1.50;;;20.70;55.50;;;;;;4997118;28;20643;-75
2021/04/11 11:53:39;;;;;;;1.50;1.37;;;21.10;54.40;;;;;;4993897;28;20197;-75
2021/04/11 11:56:23;;;;;;;2.53;1.43;;;21.70;54.50;;;;;;4997178;28;20639;-75
2021/04/11 11:59:03;;;;;;;2.20;1.30;;;22.50;55.90;;;;;;4997196;28;20183;-75
2021/04/11 12:01:49;;;;;;;2.40;1.50;;;23.30;53.90;;;;;;4995872;28;20187;-75
2021/04/11 12:04:39;;;;;;;1.60;1.33;;;23.60;52.90;;;;;;4995315;28;20725;-76
2021/04/11 12:07:20;;;;;;;3.77;1.47;;;23.80;50.50;;;;;;4995452;28;20244;-75
2021/04/11 12:10:04;;;;;;;2.50;1.33;;;22.20;53.00;;;;;;4997374;28;20184;-75
2021/04/11 12:12:35;;;;;;;1.73;1.27;;;21.20;50.20;;;;;;4996729;28;20171;-75
2021/04/11 12:15:21;;;;;;;4.20;1.47;;;20.60;55.40;;;;;;4998917;28;20172;-77
2021/04/11 12:18:03;;;;;;;2.30;1.20;;;20.20;53.70;;;;;;4995624;28;20203;-78
2021/04/11 12:20:41;;;;;;;1.80;1.33;;;20.00;55.10;;;;;;4996893;28;20177;-77
2021/04/11 12:23:07;;;;;;;2.03;1.57;;;20.00;54.50;;;;;;4998170;28;20175;-78
2021/04/11 12:25:35;;;;;;;1.60;1.50;;;20.10;56.20;;;;;;4999530;28;20218;-77
2021/04/11 12:28:24;;;;;;;1.67;1.13;;;20.20;54.70;;;;;;4999873;28;20222;-77
2021/04/11 12:30:51;;;;;;;1.37;1.27;;;20.20;57.00;;;;;;4999987;28;20184;-77
2021/04/11 12:33:47;;;;;;;2.07;1.40;;;20.60;56.00;;;;;;5000972;28;20169;-77
2021/04/11 12:36:42;;;;;;;2.37;1.23;;;21.30;56.10;;;;;;5000878;28;20161;-78
2021/04/11 12:39:15;;;;;;;1.20;1.10;;;21.70;53.70;;;;;;5000039;28;20159;-78
2021/04/11 12:42:20;;;;;;;1.73;1.63;;;22.20;51.20;;;;;;4999909;28;20630;-77
2021/04/11 12:45:00;;;;;;;3.00;1.20;;;22.30;53.10;;;;;;4999583;28;20554;-77
2021/04/11 12:47:59;;;;;;;2.73;1.20;;;22.00;53.50;;;;;;5000286;28;20198;-78
2021/04/11 12:51:01;;;;;;;2.77;1.10;;;22.10;51.60;;;;;;5000036;28;20163;-78
2021/04/11 12:53:37;;;;;;;2.13;1.03;;;22.90;54.40;;;;;;4992723;28;20268;-77
2021/04/11 12:56:10;;;;;;;4.90;2.60;;;23.30;51.10;;;;;;5001842;28;20164;-77
2021/04/11 12:58:39;;;;;;;1.40;0.90;;;22.50;52.50;;;;;;5002074;28;20293;-77
2021/04/11 13:01:16;;;;;;;2.00;1.30;;;21.90;50.80;;;;;;5002796;28;20178;-78
2021/04/11 13:04:02;;;;;;;1.10;1.00;;;22.10;51.00;;;;;;5003366;28;20305;-78
2021/04/11 13:06:50;;;;;;;1.17;0.90;;;22.40;49.60;;;;;;5002247;28;20178;-77
2021/04/11 13:09:37;;;;;;;1.00;0.80;;;23.10;47.30;;;;;;5002925;28;20176;-77
2021/04/11 13:12:08;;;;;;;2.27;1.00;;;23.30;47.10;;;;;;5001968;28;20704;-78
2021/04/11 13:14:38;;;;;;;0.80;0.80;;;24.10;48.60;;;;;;5001623;28;20174;-78
2021/04/11 13:17:35;;;;;;;2.60;0.90;;;24.50;47.50;;;;;;5001567;28;20203;-78
2021/04/11 13:20:12;;;;;;;2.73;0.80;;;24.90;46.70;;;;;;5001670;28;20190;-78
2021/04/11 13:23:07;;;;;;;1.00;0.90;;;24.50;44.00;;;;;;5000101;28;20271;-77
2021/04/11 13:26:05;;;;;;;2.80;0.90;;;24.60;45.50;;;;;;5000356;28;20199;-79
2021/04/11 13:28:47;;;;;;;1.27;0.60;;;23.90;44.90;;;;;;5001281;28;20692;-78
2021/04/11 13:31:39;;;;;;;1.03;0.73;;;22.80;45.30;;;;;;5000971;28;20595;-79
2021/04/11 13:34:13;;;;;;;1.73;1.47;;;22.40;47.50;;;;;;4999630;28;20299;-77
2021/04/11 13:36:47;;;;;;;1.27;0.80;;;21.90;46.60;;;;;;4997143;28;20171;-77
2021/04/11 13:39:27;;;;;;;1.00;0.80;;;21.60;47.20;;;;;;4996217;28;20178;-77
2021/04/11 13:42:11;;;;;;;1.10;0.80;;;21.40;48.70;;;;;;4997081;28;20641;-77
2021/04/11 13:44:53;;;;;;;0.83;0.73;;;22.80;48.50;;;;;;5000372;28;20657;-78
2021/04/11 13:47:58;;;;;;;1.03;0.70;;;24.40;45.60;;;;;;5002090;28;20666;-77
2021/04/11 13:50:57;;;;;;;0.80;0.80;;;25.80;44.10;;;;;;5001773;28;20191;-78
2021/04/11 13:54:01;;;;;;;0.93;0.80;;;25.80;43.30;;;;;;5001046;28;20225;-77
2021/04/11 13:56:35;;;;;;;0.93;0.83;;;25.80;43.10;;;;;;4981807;28;20578;-78